Chickasaw, AL (36611)

12:00 PM CDT on October 23, 2014 (GMT -0500)
Westlawn | Change Station
CLOSE
Current Station
Personal Weather Station
Location: Mobile, AL
Elevation: 13 m
Nearby Weather Stations

Elev 13 m 30.68 °N, 88.12 °W | Updated 1 minute ago

Clear
Clear
20.7 °C
Feels Like 20.7 °C
N
3.2
Wind Variable Wind from NNW
Gusts 9.7 km/h

Today
High -- | Low -- °C
--% Chance of Precip.
Yesterday
High -- | Low -- °C
Precip. -- mm
7:00 AM 6:12 PM
Waning Crescent, 0% visible
Pressure 1020 hPa
Visibility 16.1 kilometers
Clouds Few 1828 m
Dew Point 11 °C
Humidity 52%
Rainfall 0 mm
Snow Depth Not available.
UV 6 out of 12
Pollen 2.70 out of 12
Ozone Good
Flu Activity Sporadic
METAR KMOB 231556Z 07008KT 10SM FEW060 18/08 A3013 RMK AO2 SLP202 T01830083

More Conditions Fewer Conditions

Pressure 1020 hPa
Visibility 16.1 kilometers
Clouds Few 1828 m
Dew Point 11 °C
Humidity 52%
Rainfall 0 mm
Snow Depth Not available.
UV 6 out of 12
Pollen 2.70 out of 12
Ozone Good
Flu Activity Sporadic
METAR KMOB 231556Z 07008KT 10SM FEW060 18/08 A3013 RMK AO2 SLP202 T01830083

More Conditions Fewer Conditions

10-Day Weather Forecast

Almanac

Astronomy

Oct. 23, 2014 Rise Set
Actual Time 7:00 AM CDT 6:12 PM CDT
Civil Twilight 6:36 AM CDT 6:37 PM CDT
Nautical Twilight 6:07 AM CDT 7:05 PM CDT
Astronomical Twilight 5:39 AM CDT 7:33 PM CDT
Moon 6:41 AM CDT 6:14 PM CDT
Length of Visible Light 12h 01m
Length of Day
11h 12m
Tomorrow will be 1m 43s shorter.
Waning Crescent, 0% of the Moon is Illuminated
Today
Waning Crescent
Oct 23
New
Oct 30
First Quarter
Nov 6
Full
Nov 14
Last Quarter

Today's Extremes

State Highs State Lows

Community

WunderPhotos

Upload Photos

1,764,311 photos uploaded!

WunderBlogs® & News

Nearby

Air Quality

  Air Quality AQ Index Pollutant
Yesterday Good
OZONE
Current Good
OZONE

Snow Depth

Station Depth Elevation
No new snow has been reported.

Earthquake Activity

City Distance Mag. Time & Date
No recent earthquake activity has been reported nearby.
Minimum magnitude displayed is 2.5.

Coastal Water Temperatures

Place Temperature
Mobile State Docks, AL 23.3 °C
Coast Guard Sector Mobile, AL 22.8 °C

Nearby Weather Stations